sensor_id;sensor_type;location;lat;lon;timestamp;temperature;humidity
35962;DHT22;22044;48.298;10.008;2023-10-13T00:00:00;17.10;99.90
35962;DHT22;22044;48.298;10.008;2023-10-13T00:03:06;17.00;99.90
35962;DHT22;22044;48.298;10.008;2023-10-13T00:05:59;16.80;99.90
35962;DHT22;22044;48.298;10.008;2023-10-13T00:08:48;16.80;99.90
35962;DHT22;22044;48.298;10.008;2023-10-13T00:11:34;16.70;99.90
35962;DHT22;22044;48.298;10.008;2023-10-13T00:14:20;16.70;99.90
35962;DHT22;22044;48.298;10.008;2023-10-13T00:17:07;16.70;99.90
35962;DHT22;22044;48.298;10.008;2023-10-13T00:19:54;16.70;99.90
35962;DHT22;22044;48.298;10.008;2023-10-13T00:22:44;16.70;99.90
35962;DHT22;22044;48.298;10.008;2023-10-13T00:25:33;16.70;99.90
35962;DHT22;22044;48.298;10.008;2023-10-13T00:28:27;16.70;99.90
35962;DHT22;22044;48.298;10.008;2023-10-13T00:31:19;16.70;99.90
35962;DHT22;22044;48.298;10.008;2023-10-13T00:34:06;16.70;99.90
35962;DHT22;22044;48.298;10.008;2023-10-13T00:36:55;16.80;99.90
35962;DHT22;22044;48.298;10.008;2023-10-13T00:39:54;16.70;99.90
35962;DHT22;22044;48.298;10.008;2023-10-13T00:42:43;16.70;99.90
35962;DHT22;22044;48.298;10.008;2023-10-13T00:45:35;16.70;99.90
35962;DHT22;22044;48.298;10.008;2023-10-13T00:48:21;16.70;99.90
35962;DHT22;22044;48.298;10.008;2023-10-13T00:51:10;16.70;99.90
35962;DHT22;22044;48.298;10.008;2023-10-13T00:54:04;16.70;99.90
35962;DHT22;22044;48.298;10.008;2023-10-13T00:56:55;16.70;99.90
35962;DHT22;22044;48.298;10.008;2023-10-13T00:59:50;16.70;99.90
35962;DHT22;22044;48.298;10.008;2023-10-13T01:02:37;16.60;99.90
35962;DHT22;22044;48.298;10.008;2023-10-13T01:05:23;16.60;99.90
35962;DHT22;22044;48.298;10.008;2023-10-13T01:08:08;16.60;99.90
35962;DHT22;22044;48.298;10.008;2023-10-13T01:10:56;16.60;99.90
35962;DHT22;22044;48.298;10.008;2023-10-13T01:13:40;16.50;99.90
35962;DHT22;22044;48.298;10.008;2023-10-13T01:16:27;16.50;99.90
35962;DHT22;22044;48.298;10.008;2023-10-13T01:19:15;16.50;99.90
35962;DHT22;22044;48.298;10.008;2023-10-13T01:22:02;16.50;99.90
35962;DHT22;22044;48.298;10.008;2023-10-13T01:24:49;16.50;99.90
35962;DHT22;22044;48.298;10.008;2023-10-13T01:27:36;16.50;99.90
35962;DHT22;22044;48.298;10.008;2023-10-13T01:30:22;16.40;99.90
35962;DHT22;22044;48.298;10.008;2023-10-13T01:33:10;16.40;99.90
35962;DHT22;22044;48.298;10.008;2023-10-13T01:35:56;16.40;99.90
35962;DHT22;22044;48.298;10.008;2023-10-13T01:38:43;16.30;99.90
35962;DHT22;22044;48.298;10.008;2023-10-13T01:41:29;16.30;99.90
35962;DHT22;22044;48.298;10.008;2023-10-13T01:44:14;16.20;99.90
35962;DHT22;22044;48.298;10.008;2023-10-13T01:47:01;16.20;99.90
35962;DHT22;22044;48.298;10.008;2023-10-13T01:49:50;16.20;99.90
35962;DHT22;22044;48.298;10.008;2023-10-13T01:52:37;16.10;99.90
35962;DHT22;22044;48.298;10.008;2023-10-13T01:55:21;16.10;99.90
35962;DHT22;22044;48.298;10.008;2023-10-13T01:58:09;16.00;99.90
35962;DHT22;22044;48.298;10.008;2023-10-13T02:00:59;16.00;99.90
35962;DHT22;22044;48.298;10.008;2023-10-13T02:03:46;16.00;99.90
35962;DHT22;22044;48.298;10.008;2023-10-13T02:06:33;15.90;99.90
35962;DHT22;22044;48.298;10.008;2023-10-13T02:09:20;15.90;99.90
35962;DHT22;22044;48.298;10.008;2023-10-13T02:12:10;15.80;99.90
35962;DHT22;22044;48.298;10.008;2023-10-13T02:14:57;15.80;99.90
35962;DHT22;22044;48.298;10.008;2023-10-13T02:17:45;15.80;99.90
35962;DHT22;22044;48.298;10.008;2023-10-13T02:20:35;15.70;99.90
35962;DHT22;22044;48.298;10.008;2023-10-13T02:23:27;15.70;99.90
35962;DHT22;22044;48.298;10.008;2023-10-13T02:26:14;15.70;99.90
35962;DHT22;22044;48.298;10.008;2023-10-13T02:29:01;15.70;99.90
35962;DHT22;22044;48.298;10.008;2023-10-13T02:31:51;15.60;99.90
35962;DHT22;22044;48.298;10.008;2023-10-13T02:34:39;15.60;99.90
35962;DHT22;22044;48.298;10.008;2023-10-13T02:37:27;15.50;99.90
35962;DHT22;22044;48.298;10.008;2023-10-13T02:40:12;15.50;99.90
35962;DHT22;22044;48.298;10.008;2023-10-13T02:42:58;15.50;99.90
35962;DHT22;22044;48.298;10.008;2023-10-13T02:45:52;15.50;99.90
35962;DHT22;22044;48.298;10.008;2023-10-13T02:48:43;15.40;99.90
35962;DHT22;22044;48.298;10.008;2023-10-13T02:51:37;15.40;99.90
35962;DHT22;22044;48.298;10.008;2023-10-13T02:54:22;15.40;99.90
35962;DHT22;22044;48.298;10.008;2023-10-13T02:57:14;15.30;99.90
35962;DHT22;22044;48.298;10.008;2023-10-13T02:59:59;15.30;99.90
35962;DHT22;22044;48.298;10.008;2023-10-13T03:02:56;15.30;99.90
35962;DHT22;22044;48.298;10.008;2023-10-13T03:05:44;15.30;99.90
35962;DHT22;22044;48.298;10.008;2023-10-13T03:08:30;15.30;99.90
35962;DHT22;22044;48.298;10.008;2023-10-13T03:11:15;15.20;99.90
35962;DHT22;22044;48.298;10.008;2023-10-13T03:14:05;15.20;99.90
35962;DHT22;22044;48.298;10.008;2023-10-13T03:16:51;15.10;99.90
35962;DHT22;22044;48.298;10.008;2023-10-13T03:19:36;15.10;99.90
35962;DHT22;22044;48.298;10.008;2023-10-13T03:22:23;15.10;99.90
35962;DHT22;22044;48.298;10.008;2023-10-13T03:25:16;15.10;99.90
35962;DHT22;22044;48.298;10.008;2023-10-13T03:28:09;15.10;99.90
35962;DHT22;22044;48.298;10.008;2023-10-13T03:30:58;15.10;99.90
35962;DHT22;22044;48.298;10.008;2023-10-13T03:33:46;15.10;99.90
35962;DHT22;22044;48.298;10.008;2023-10-13T03:36:33;15.10;99.90
35962;DHT22;22044;48.298;10.008;2023-10-13T03:39:36;15.10;99.90
35962;DHT22;22044;48.298;10.008;2023-10-13T03:42:22;15.00;99.90
35962;DHT22;22044;48.298;10.008;2023-10-13T03:45:08;14.70;99.90
35962;DHT22;22044;48.298;10.008;2023-10-13T03:47:55;14.30;99.90
35962;DHT22;22044;48.298;10.008;2023-10-13T03:50:41;14.10;99.90
35962;DHT22;22044;48.298;10.008;2023-10-13T03:53:33;13.70;99.90
35962;DHT22;22044;48.298;10.008;2023-10-13T03:56:20;13.50;99.90
35962;DHT22;22044;48.298;10.008;2023-10-13T03:59:12;13.30;99.90
35962;DHT22;22044;48.298;10.008;2023-10-13T04:02:04;13.40;99.90
35962;DHT22;22044;48.298;10.008;2023-10-13T04:04:57;13.40;99.90
35962;DHT22;22044;48.298;10.008;2023-10-13T04:07:51;13.40;99.90
35962;DHT22;22044;48.298;10.008;2023-10-13T04:10:51;13.30;99.90
35962;DHT22;22044;48.298;10.008;2023-10-13T04:13:56;13.10;99.90
35962;DHT22;22044;48.298;10.008;2023-10-13T04:17:00;13.20;99.90
35962;DHT22;22044;48.298;10.008;2023-10-13T04:19:57;13.30;99.90
35962;DHT22;22044;48.298;10.008;2023-10-13T04:23:03;13.40;99.90
35962;DHT22;22044;48.298;10.008;2023-10-13T04:26:05;13.30;99.90
35962;DHT22;22044;48.298;10.008;2023-10-13T04:28:53;13.30;99.90
35962;DHT22;22044;48.298;10.008;2023-10-13T04:31:42;13.30;99.90
35962;DHT22;22044;48.298;10.008;2023-10-13T04:34:40;13.40;99.90
35962;DHT22;22044;48.298;10.008;2023-10-13T04:37:29;13.50;99.90
35962;DHT22;22044;48.298;10.008;2023-10-13T04:40:18;13.50;99.90
35962;DHT22;22044;48.298;10.008;2023-10-13T04:43:08;13.50;99.90
35962;DHT22;22044;48.298;10.008;2023-10-13T04:46:17;13.40;99.90
35962;DHT22;22044;48.298;10.008;2023-10-13T04:49:21;13.10;99.90
35962;DHT22;22044;48.298;10.008;2023-10-13T04:52:13;13.00;99.90
35962;DHT22;22044;48.298;10.008;2023-10-13T04:55:11;12.90;99.90
35962;DHT22;22044;48.298;10.008;2023-10-13T04:58:09;13.00;99.90
35962;DHT22;22044;48.298;10.008;2023-10-13T05:00:59;13.10;99.90
35962;DHT22;22044;48.298;10.008;2023-10-13T05:04:30;13.10;99.90
35962;DHT22;22044;48.298;10.008;2023-10-13T05:07:23;13.00;99.90
35962;DHT22;22044;48.298;10.008;2023-10-13T05:10:26;13.00;99.90
35962;DHT22;22044;48.298;10.008;2023-10-13T05:13:38;13.00;99.90
35962;DHT22;22044;48.298;10.008;2023-10-13T05:16:41;13.00;99.90
35962;DHT22;22044;48.298;10.008;2023-10-13T05:19:46;13.10;99.90
35962;DHT22;22044;48.298;10.008;2023-10-13T05:22:49;12.90;99.90
35962;DHT22;22044;48.298;10.008;2023-10-13T05:25:52;12.70;99.90
35962;DHT22;22044;48.298;10.008;2023-10-13T05:28:55;12.50;99.90
35962;DHT22;22044;48.298;10.008;2023-10-13T05:31:58;12.30;99.90
35962;DHT22;22044;48.298;10.008;2023-10-13T05:35:03;12.30;99.90
35962;DHT22;22044;48.298;10.008;2023-10-13T05:38:06;12.20;99.90
35962;DHT22;22044;48.298;10.008;2023-10-13T05:41:09;12.10;99.90
35962;DHT22;22044;48.298;10.008;2023-10-13T05:44:13;12.10;99.90
35962;DHT22;22044;48.298;10.008;2023-10-13T05:47:16;12.00;99.90
35962;DHT22;22044;48.298;10.008;2023-10-13T05:50:20;12.00;99.90
35962;DHT22;22044;48.298;10.008;2023-10-13T05:53:34;12.10;99.90
35962;DHT22;22044;48.298;10.008;2023-10-13T05:56:37;12.20;99.90
35962;DHT22;22044;48.298;10.008;2023-10-13T05:59:40;12.40;99.90
35962;DHT22;22044;48.298;10.008;2023-10-13T06:02:43;12.60;99.90
35962;DHT22;22044;48.298;10.008;2023-10-13T06:06:02;12.60;99.90
35962;DHT22;22044;48.298;10.008;2023-10-13T06:09:08;12.70;99.90
35962;DHT22;22044;48.298;10.008;2023-10-13T06:12:20;12.70;99.90
35962;DHT22;22044;48.298;10.008;2023-10-13T06:15:23;12.90;99.90
35962;DHT22;22044;48.298;10.008;2023-10-13T06:18:26;12.90;99.90
35962;DHT22;22044;48.298;10.008;2023-10-13T06:21:30;12.90;99.90
35962;DHT22;22044;48.298;10.008;2023-10-13T06:24:33;12.90;99.90
35962;DHT22;22044;48.298;10.008;2023-10-13T06:27:42;13.10;99.90
35962;DHT22;22044;48.298;10.008;2023-10-13T06:30:53;13.20;99.90
35962;DHT22;22044;48.298;10.008;2023-10-13T06:33:41;13.20;99.90
35962;DHT22;22044;48.298;10.008;2023-10-13T06:36:30;13.00;99.90
35962;DHT22;22044;48.298;10.008;2023-10-13T06:39:17;12.90;99.90
35962;DHT22;22044;48.298;10.008;2023-10-13T06:42:20;12.90;99.90
35962;DHT22;22044;48.298;10.008;2023-10-13T06:45:06;12.80;99.90
35962;DHT22;22044;48.298;10.008;2023-10-13T06:47:53;12.70;99.90
35962;DHT22;22044;48.298;10.008;2023-10-13T06:50:41;12.70;99.90
35962;DHT22;22044;48.298;10.008;2023-10-13T06:53:34;12.70;99.90
35962;DHT22;22044;48.298;10.008;2023-10-13T06:56:21;12.70;99.90
35962;DHT22;22044;48.298;10.008;2023-10-13T06:59:11;12.90;99.90
35962;DHT22;22044;48.298;10.008;2023-10-13T07:01:58;13.00;99.90
35962;DHT22;22044;48.298;10.008;2023-10-13T07:04:49;13.10;99.90
35962;DHT22;22044;48.298;10.008;2023-10-13T07:07:41;13.20;99.90
35962;DHT22;22044;48.298;10.008;2023-10-13T07:10:30;13.40;99.90
35962;DHT22;22044;48.298;10.008;2023-10-13T07:13:19;13.50;99.90
35962;DHT22;22044;48.298;10.008;2023-10-13T07:16:06;13.60;99.90
35962;DHT22;22044;48.298;10.008;2023-10-13T07:18:56;13.80;99.90
35962;DHT22;22044;48.298;10.008;2023-10-13T07:21:48;13.90;99.90
35962;DHT22;22044;48.298;10.008;2023-10-13T07:24:41;14.10;99.90
35962;DHT22;22044;48.298;10.008;2023-10-13T07:27:28;14.20;99.90
35962;DHT22;22044;48.298;10.008;2023-10-13T07:30:14;14.30;99.90
35962;DHT22;22044;48.298;10.008;2023-10-13T07:33:04;14.40;99.90
35962;DHT22;22044;48.298;10.008;2023-10-13T07:36:00;14.50;99.90
35962;DHT22;22044;48.298;10.008;2023-10-13T07:38:54;14.60;99.90
35962;DHT22;22044;48.298;10.008;2023-10-13T07:41:58;14.80;99.90
35962;DHT22;22044;48.298;10.008;2023-10-13T07:44:49;15.00;99.90
35962;DHT22;22044;48.298;10.008;2023-10-13T07:47:39;15.20;99.90
35962;DHT22;22044;48.298;10.008;2023-10-13T07:50:25;15.30;99.90
35962;DHT22;22044;48.298;10.008;2023-10-13T07:53:11;15.30;99.90
35962;DHT22;22044;48.298;10.008;2023-10-13T07:56:07;15.40;99.90
35962;DHT22;22044;48.298;10.008;2023-10-13T07:58:55;15.50;99.90
35962;DHT22;22044;48.298;10.008;2023-10-13T08:01:46;15.60;99.90
35962;DHT22;22044;48.298;10.008;2023-10-13T08:04:31;15.80;99.90
35962;DHT22;22044;48.298;10.008;2023-10-13T08:07:19;15.90;99.90
35962;DHT22;22044;48.298;10.008;2023-10-13T08:10:12;16.00;99.90
35962;DHT22;22044;48.298;10.008;2023-10-13T08:13:00;16.00;99.90
35962;DHT22;22044;48.298;10.008;2023-10-13T08:15:46;16.10;99.90
35962;DHT22;22044;48.298;10.008;2023-10-13T08:18:33;16.40;99.90
35962;DHT22;22044;48.298;10.008;2023-10-13T08:21:21;17.10;99.90
35962;DHT22;22044;48.298;10.008;2023-10-13T08:24:08;17.90;99.90
35962;DHT22;22044;48.298;10.008;2023-10-13T08:26:54;18.30;99.90
35962;DHT22;22044;48.298;10.008;2023-10-13T08:29:59;19.30;99.90
35962;DHT22;22044;48.298;10.008;2023-10-13T08:33:09;20.20;99.90
35962;DHT22;22044;48.298;10.008;2023-10-13T08:36:02;20.90;99.90
35962;DHT22;22044;48.298;10.008;2023-10-13T08:39:10;20.40;99.90
35962;DHT22;22044;48.298;10.008;2023-10-13T08:42:29;19.80;99.90
35962;DHT22;22044;48.298;10.008;2023-10-13T08:45:36;19.00;99.90
35962;DHT22;22044;48.298;10.008;2023-10-13T08:48:37;19.10;99.90
35962;DHT22;22044;48.298;10.008;2023-10-13T08:51:23;19.00;99.90
35962;DHT22;22044;48.298;10.008;2023-10-13T08:54:27;19.00;99.90
35962;DHT22;22044;48.298;10.008;2023-10-13T08:57:18;19.00;99.90
35962;DHT22;22044;48.298;10.008;2023-10-13T09:00:17;19.00;99.90
35962;DHT22;22044;48.298;10.008;2023-10-13T09:03:22;19.00;99.90
35962;DHT22;22044;48.298;10.008;2023-10-13T09:06:14;19.30;99.90
35962;DHT22;22044;48.298;10.008;2023-10-13T09:09:06;19.20;99.90
35962;DHT22;22044;48.298;10.008;2023-10-13T09:11:51;19.30;99.90
35962;DHT22;22044;48.298;10.008;2023-10-13T09:14:53;19.40;99.90
35962;DHT22;22044;48.298;10.008;2023-10-13T09:17:43;19.70;99.90
35962;DHT22;22044;48.298;10.008;2023-10-13T09:20:32;19.90;99.90
35962;DHT22;22044;48.298;10.008;2023-10-13T09:23:28;20.00;99.90
35962;DHT22;22044;48.298;10.008;2023-10-13T09:26:33;20.40;99.90
35962;DHT22;22044;48.298;10.008;2023-10-13T09:29:20;20.70;99.90
35962;DHT22;22044;48.298;10.008;2023-10-13T09:32:06;21.00;99.90
35962;DHT22;22044;48.298;10.008;2023-10-13T09:35:01;21.10;99.90
35962;DHT22;22044;48.298;10.008;2023-10-13T09:37:47;21.00;99.90
35962;DHT22;22044;48.298;10.008;2023-10-13T09:40:34;20.90;99.90
35962;DHT22;22044;48.298;10.008;2023-10-13T09:43:23;20.90;99.90
35962;DHT22;22044;48.298;10.008;2023-10-13T09:46:10;21.10;99.90
35962;DHT22;22044;48.298;10.008;2023-10-13T09:49:09;21.00;99.90
35962;DHT22;22044;48.298;10.008;2023-10-13T09:52:01;21.00;99.90
35962;DHT22;22044;48.298;10.008;2023-10-13T09:54:56;21.20;99.90
35962;DHT22;22044;48.298;10.008;2023-10-13T09:57:53;21.30;99.90
35962;DHT22;22044;48.298;10.008;2023-10-13T10:00:45;21.40;99.90
35962;DHT22;22044;48.298;10.008;2023-10-13T10:03:32;21.50;99.90
35962;DHT22;22044;48.298;10.008;2023-10-13T10:06:35;21.50;99.90
35962;DHT22;22044;48.298;10.008;2023-10-13T10:09:30;21.60;99.90
35962;DHT22;22044;48.298;10.008;2023-10-13T10:12:28;21.80;99.90
35962;DHT22;22044;48.298;10.008;2023-10-13T10:15:26;22.00;99.90
35962;DHT22;22044;48.298;10.008;2023-10-13T10:18:18;22.10;99.90
35962;DHT22;22044;48.298;10.008;2023-10-13T10:21:06;22.00;99.90
35962;DHT22;22044;48.298;10.008;2023-10-13T10:23:54;21.90;99.90
35962;DHT22;22044;48.298;10.008;2023-10-13T10:26:50;21.90;99.90
35962;DHT22;22044;48.298;10.008;2023-10-13T10:29:36;21.80;99.90
35962;DHT22;22044;48.298;10.008;2023-10-13T10:32:33;21.90;99.90
35962;DHT22;22044;48.298;10.008;2023-10-13T10:35:23;22.10;99.90
35962;DHT22;22044;48.298;10.008;2023-10-13T10:38:11;22.30;99.90
35962;DHT22;22044;48.298;10.008;2023-10-13T10:41:01;22.50;99.90
35962;DHT22;22044;48.298;10.008;2023-10-13T10:43:48;22.50;99.90
35962;DHT22;22044;48.298;10.008;2023-10-13T10:46:34;22.60;99.90
35962;DHT22;22044;48.298;10.008;2023-10-13T10:49:27;22.80;99.90
35962;DHT22;22044;48.298;10.008;2023-10-13T10:52:17;22.80;99.90
35962;DHT22;22044;48.298;10.008;2023-10-13T10:55:06;23.00;99.90
35962;DHT22;22044;48.298;10.008;2023-10-13T10:57:58;23.00;99.90
35962;DHT22;22044;48.298;10.008;2023-10-13T11:00:45;23.00;99.90
35962;DHT22;22044;48.298;10.008;2023-10-13T11:03:34;23.10;99.90
35962;DHT22;22044;48.298;10.008;2023-10-13T11:06:24;23.10;99.90
35962;DHT22;22044;48.298;10.008;2023-10-13T11:09:10;23.10;99.90
35962;DHT22;22044;48.298;10.008;2023-10-13T11:12:13;23.00;99.90
35962;DHT22;22044;48.298;10.008;2023-10-13T11:15:09;22.80;99.90
35962;DHT22;22044;48.298;10.008;2023-10-13T11:17:59;22.60;99.00
35962;DHT22;22044;48.298;10.008;2023-10-13T11:20:44;22.70;99.90
35962;DHT22;22044;48.298;10.008;2023-10-13T11:23:32;22.80;99.80
35962;DHT22;22044;48.298;10.008;2023-10-13T11:26:21;22.90;99.90
35962;DHT22;22044;48.298;10.008;2023-10-13T11:29:06;23.00;98.10
35962;DHT22;22044;48.298;10.008;2023-10-13T11:31:54;23.00;97.60
35962;DHT22;22044;48.298;10.008;2023-10-13T11:34:43;23.20;97.90
35962;DHT22;22044;48.298;10.008;2023-10-13T11:37:28;23.30;98.10
35962;DHT22;22044;48.298;10.008;2023-10-13T11:40:23;23.40;98.20
35962;DHT22;22044;48.298;10.008;2023-10-13T11:43:23;23.60;98.30
35962;DHT22;22044;48.298;10.008;2023-10-13T11:46:09;23.80;96.70
35962;DHT22;22044;48.298;10.008;2023-10-13T11:48:57;23.80;98.70
35962;DHT22;22044;48.298;10.008;2023-10-13T11:51:50;24.00;97.60
35962;DHT22;22044;48.298;10.008;2023-10-13T11:54:35;24.10;95.80
35962;DHT22;22044;48.298;10.008;2023-10-13T11:57:27;24.10;95.90
35962;DHT22;22044;48.298;10.008;2023-10-13T12:00:14;24.20;95.50
35962;DHT22;22044;48.298;10.008;2023-10-13T12:03:12;24.30;96.10
35962;DHT22;22044;48.298;10.008;2023-10-13T12:06:14;24.30;94.30
35962;DHT22;22044;48.298;10.008;2023-10-13T12:09:17;24.40;94.50
35962;DHT22;22044;48.298;10.008;2023-10-13T12:12:27;24.40;93.50
35962;DHT22;22044;48.298;10.008;2023-10-13T12:15:14;24.40;93.60
35962;DHT22;22044;48.298;10.008;2023-10-13T12:18:10;24.30;91.80
35962;DHT22;22044;48.298;10.008;2023-10-13T12:20:59;24.50;93.70
35962;DHT22;22044;48.298;10.008;2023-10-13T12:23:45;24.50;91.60
35962;DHT22;22044;48.298;10.008;2023-10-13T12:26:31;24.50;91.10
35962;DHT22;22044;48.298;10.008;2023-10-13T12:29:19;24.70;92.80
35962;DHT22;22044;48.298;10.008;2023-10-13T12:32:07;24.70;90.40
35962;DHT22;22044;48.298;10.008;2023-10-13T12:34:55;24.70;91.00
35962;DHT22;22044;48.298;10.008;2023-10-13T12:38:03;24.80;90.80
35962;DHT22;22044;48.298;10.008;2023-10-13T12:41:00;24.80;91.50
35962;DHT22;22044;48.298;10.008;2023-10-13T12:44:05;24.80;90.40
35962;DHT22;22044;48.298;10.008;2023-10-13T12:47:09;24.70;86.90
35962;DHT22;22044;48.298;10.008;2023-10-13T12:50:13;24.70;89.10
35962;DHT22;22044;48.298;10.008;2023-10-13T12:53:19;24.90;86.10
35962;DHT22;22044;48.298;10.008;2023-10-13T12:56:05;24.80;88.80
35962;DHT22;22044;48.298;10.008;2023-10-13T12:58:51;25.00;87.80
35962;DHT22;22044;48.298;10.008;2023-10-13T13:01:36;25.00;85.50
35962;DHT22;22044;48.298;10.008;2023-10-13T13:04:27;25.00;88.60
35962;DHT22;22044;48.298;10.008;2023-10-13T13:07:20;25.10;84.80
35962;DHT22;22044;48.298;10.008;2023-10-13T13:10:07;25.00;84.40
35962;DHT22;22044;48.298;10.008;2023-10-13T13:12:52;25.00;85.80
35962;DHT22;22044;48.298;10.008;2023-10-13T13:15:38;25.10;83.70
35962;DHT22;22044;48.298;10.008;2023-10-13T13:18:23;25.10;84.20
35962;DHT22;22044;48.298;10.008;2023-10-13T13:21:11;25.10;81.60
35962;DHT22;22044;48.298;10.008;2023-10-13T13:24:04;25.00;78.10
35962;DHT22;22044;48.298;10.008;2023-10-13T13:26:55;24.90;82.50
35962;DHT22;22044;48.298;10.008;2023-10-13T13:29:40;25.00;81.10
35962;DHT22;22044;48.298;10.008;2023-10-13T13:32:26;24.90;83.30
35962;DHT22;22044;48.298;10.008;2023-10-13T13:35:13;25.00;79.00
35962;DHT22;22044;48.298;10.008;2023-10-13T13:38:01;25.10;76.50
35962;DHT22;22044;48.298;10.008;2023-10-13T13:40:53;25.00;76.50
35962;DHT22;22044;48.298;10.008;2023-10-13T13:43:39;25.10;76.30
35962;DHT22;22044;48.298;10.008;2023-10-13T13:46:35;25.00;77.00
35962;DHT22;22044;48.298;10.008;2023-10-13T13:49:25;25.10;75.60
35962;DHT22;22044;48.298;10.008;2023-10-13T13:52:23;25.00;74.10
35962;DHT22;22044;48.298;10.008;2023-10-13T13:55:19;25.00;75.00
35962;DHT22;22044;48.298;10.008;2023-10-13T13:58:04;25.00;80.60
35962;DHT22;22044;48.298;10.008;2023-10-13T14:00:52;25.00;75.60
35962;DHT22;22044;48.298;10.008;2023-10-13T14:03:42;24.90;73.80
35962;DHT22;22044;48.298;10.008;2023-10-13T14:06:31;24.80;74.80
35962;DHT22;22044;48.298;10.008;2023-10-13T14:09:17;24.80;73.40
35962;DHT22;22044;48.298;10.008;2023-10-13T14:12:19;24.80;76.60
35962;DHT22;22044;48.298;10.008;2023-10-13T14:15:18;24.80;75.00
35962;DHT22;22044;48.298;10.008;2023-10-13T14:18:07;24.80;75.40
35962;DHT22;22044;48.298;10.008;2023-10-13T14:20:58;24.80;74.90
35962;DHT22;22044;48.298;10.008;2023-10-13T14:23:49;24.80;76.60
35962;DHT22;22044;48.298;10.008;2023-10-13T14:26:35;24.80;74.00
35962;DHT22;22044;48.298;10.008;2023-10-13T14:29:22;24.80;74.60
35962;DHT22;22044;48.298;10.008;2023-10-13T14:32:12;24.70;71.20
35962;DHT22;22044;48.298;10.008;2023-10-13T14:34:59;24.70;70.00
35962;DHT22;22044;48.298;10.008;2023-10-13T14:37:44;24.60;69.10
35962;DHT22;22044;48.298;10.008;2023-10-13T14:40:30;24.60;70.50
35962;DHT22;22044;48.298;10.008;2023-10-13T14:43:16;24.60;73.30
35962;DHT22;22044;48.298;10.008;2023-10-13T14:46:08;24.50;74.00
35962;DHT22;22044;48.298;10.008;2023-10-13T14:48:53;24.50;72.40
35962;DHT22;22044;48.298;10.008;2023-10-13T14:51:39;24.40;71.30
35962;DHT22;22044;48.298;10.008;2023-10-13T14:54:25;24.40;72.60
35962;DHT22;22044;48.298;10.008;2023-10-13T14:57:18;24.30;73.60
35962;DHT22;22044;48.298;10.008;2023-10-13T15:00:09;24.30;73.50
35962;DHT22;22044;48.298;10.008;2023-10-13T15:02:59;24.20;72.50
35962;DHT22;22044;48.298;10.008;2023-10-13T15:05:45;24.20;73.80
35962;DHT22;22044;48.298;10.008;2023-10-13T15:08:31;24.20;75.40
35962;DHT22;22044;48.298;10.008;2023-10-13T15:11:17;24.10;74.70
35962;DHT22;22044;48.298;10.008;2023-10-13T15:14:03;24.10;74.90
35962;DHT22;22044;48.298;10.008;2023-10-13T15:16:50;24.10;73.70
35962;DHT22;22044;48.298;10.008;2023-10-13T15:19:39;24.00;73.70
35962;DHT22;22044;48.298;10.008;2023-10-13T15:22:27;23.90;73.70
35962;DHT22;22044;48.298;10.008;2023-10-13T15:25:13;23.80;73.90
35962;DHT22;22044;48.298;10.008;2023-10-13T15:28:13;23.80;76.20
35962;DHT22;22044;48.298;10.008;2023-10-13T15:30:58;23.70;76.70
35962;DHT22;22044;48.298;10.008;2023-10-13T15:33:55;23.60;77.10
35962;DHT22;22044;48.298;10.008;2023-10-13T15:36:43;23.60;77.50
35962;DHT22;22044;48.298;10.008;2023-10-13T15:39:30;23.50;79.00
35962;DHT22;22044;48.298;10.008;2023-10-13T15:42:15;23.40;80.00
35962;DHT22;22044;48.298;10.008;2023-10-13T15:45:03;23.40;79.60
35962;DHT22;22044;48.298;10.008;2023-10-13T15:48:00;23.30;80.70
35962;DHT22;22044;48.298;10.008;2023-10-13T15:50:48;23.20;81.30
35962;DHT22;22044;48.298;10.008;2023-10-13T15:53:35;23.10;81.10
35962;DHT22;22044;48.298;10.008;2023-10-13T15:56:21;23.00;81.40
35962;DHT22;22044;48.298;10.008;2023-10-13T15:59:06;22.90;81.00
35962;DHT22;22044;48.298;10.008;2023-10-13T16:01:52;22.90;81.50
35962;DHT22;22044;48.298;10.008;2023-10-13T16:04:41;22.70;83.90
35962;DHT22;22044;48.298;10.008;2023-10-13T16:07:28;22.50;86.10
35962;DHT22;22044;48.298;10.008;2023-10-13T16:10:15;22.30;86.20
35962;DHT22;22044;48.298;10.008;2023-10-13T16:13:02;22.20;87.80
35962;DHT22;22044;48.298;10.008;2023-10-13T16:15:49;22.00;87.50
35962;DHT22;22044;48.298;10.008;2023-10-13T16:18:36;22.00;86.90
35962;DHT22;22044;48.298;10.008;2023-10-13T16:21:22;21.90;86.80
35962;DHT22;22044;48.298;10.008;2023-10-13T16:24:08;21.80;88.30
35962;DHT22;22044;48.298;10.008;2023-10-13T16:26:57;21.60;87.40
35962;DHT22;22044;48.298;10.008;2023-10-13T16:29:43;21.50;87.80
35962;DHT22;22044;48.298;10.008;2023-10-13T16:32:28;21.50;87.40
35962;DHT22;22044;48.298;10.008;2023-10-13T16:35:16;21.30;88.80
35962;DHT22;22044;48.298;10.008;2023-10-13T16:38:02;21.20;89.00
35962;DHT22;22044;48.298;10.008;2023-10-13T16:40:51;21.00;89.90
35962;DHT22;22044;48.298;10.008;2023-10-13T16:43:39;20.90;90.20
35962;DHT22;22044;48.298;10.008;2023-10-13T16:46:26;20.80;90.70
35962;DHT22;22044;48.298;10.008;2023-10-13T16:49:11;20.70;90.60
35962;DHT22;22044;48.298;10.008;2023-10-13T16:51:58;20.70;90.90
35962;DHT22;22044;48.298;10.008;2023-10-13T16:54:44;20.70;91.00
35962;DHT22;22044;48.298;10.008;2023-10-13T16:57:30;20.60;91.50
35962;DHT22;22044;48.298;10.008;2023-10-13T17:00:18;20.50;91.40
35962;DHT22;22044;48.298;10.008;2023-10-13T17:03:09;20.30;91.60
35962;DHT22;22044;48.298;10.008;2023-10-13T17:05:56;20.30;92.20
35962;DHT22;22044;48.298;10.008;2023-10-13T17:08:45;20.20;92.30
35962;DHT22;22044;48.298;10.008;2023-10-13T17:11:31;20.10;92.40
35962;DHT22;22044;48.298;10.008;2023-10-13T17:14:17;20.10;93.10
35962;DHT22;22044;48.298;10.008;2023-10-13T17:17:05;20.00;93.20
35962;DHT22;22044;48.298;10.008;2023-10-13T17:19:50;19.90;93.50
35962;DHT22;22044;48.298;10.008;2023-10-13T17:22:36;19.90;93.70
35962;DHT22;22044;48.298;10.008;2023-10-13T17:25:22;19.70;94.10
35962;DHT22;22044;48.298;10.008;2023-10-13T17:28:08;19.60;94.70
35962;DHT22;22044;48.298;10.008;2023-10-13T17:30:58;19.50;94.90
35962;DHT22;22044;48.298;10.008;2023-10-13T17:33:46;19.50;95.20
35962;DHT22;22044;48.298;10.008;2023-10-13T17:36:32;19.40;95.50
35962;DHT22;22044;48.298;10.008;2023-10-13T17:39:18;19.40;95.60
35962;DHT22;22044;48.298;10.008;2023-10-13T17:42:04;19.20;96.40
35962;DHT22;22044;48.298;10.008;2023-10-13T17:44:49;19.10;96.80